createdAt,value
2022-11-19T00:00:29.506Z,6.57
2022-11-19T00:03:04.256Z,7.17
2022-11-19T00:05:32.593Z,11.83
2022-11-19T00:08:02.115Z,14.13
2022-11-19T00:10:30.350Z,18.57
2022-11-19T00:13:00.048Z,15.97
2022-11-19T00:15:28.282Z,13.70
2022-11-19T00:17:57.985Z,19.17
2022-11-19T00:20:26.382Z,12.77
2022-11-19T00:22:58.508Z,12.63
2022-11-19T00:25:30.552Z,17.70
2022-11-19T00:27:59.699Z,15.87
2022-11-19T00:30:48.912Z,11.43
2022-11-19T00:33:16.860Z,14.30
2022-11-19T00:35:45.800Z,12.00
2022-11-19T00:38:14.003Z,14.50
2022-11-19T00:40:44.208Z,12.97
2022-11-19T00:43:29.571Z,12.90
2022-11-19T00:45:57.728Z,14.07
2022-11-19T00:48:28.888Z,15.17
2022-11-19T00:50:57.266Z,16.47
2022-11-19T00:53:25.554Z,15.63
2022-11-19T00:55:55.235Z,17.17
2022-11-19T00:58:23.450Z,19.70
2022-11-19T01:00:52.494Z,22.07
2022-11-19T01:03:20.699Z,18.47
2022-11-19T01:05:49.147Z,18.97
2022-11-19T01:08:17.419Z,19.57
2022-11-19T01:10:46.025Z,19.10
2022-11-19T01:13:34.980Z,21.87
2022-11-19T01:16:04.344Z,21.43
2022-11-19T01:18:32.911Z,17.10
2022-11-19T01:21:01.249Z,18.70
2022-11-19T01:23:30.043Z,18.10
2022-11-19T01:25:59.072Z,20.37
2022-11-19T01:28:29.083Z,20.03
2022-11-19T01:30:57.516Z,19.63
2022-11-19T01:33:27.201Z,18.33
2022-11-19T01:36:03.313Z,20.37
2022-11-19T01:38:32.502Z,18.00
2022-11-19T01:41:02.908Z,17.37
2022-11-19T01:43:44.314Z,21.23
2022-11-19T01:46:13.705Z,19.23
2022-11-19T01:48:47.894Z,19.57
2022-11-19T01:51:21.023Z,16.53
2022-11-19T01:53:51.048Z,23.07
2022-11-19T01:56:23.850Z,21.03
2022-11-19T01:58:58.407Z,17.67
2022-11-19T02:01:27.037Z,19.33
2022-11-19T02:03:55.944Z,18.13
2022-11-19T02:06:24.156Z,15.87
2022-11-19T02:08:53.378Z,20.23
2022-11-19T02:12:06.849Z,15.50
2022-11-19T02:15:14.251Z,16.93
2022-11-19T02:18:03.583Z,19.30
2022-11-19T02:20:58.536Z,16.27
2022-11-19T02:24:04.040Z,12.07
2022-11-19T02:27:09.482Z,12.53
2022-11-19T02:29:56.127Z,12.87
2022-11-19T02:32:32.234Z,14.20
2022-11-19T02:35:07.047Z,16.07
2022-11-19T02:37:42.871Z,14.37
2022-11-19T02:40:16.541Z,16.53
2022-11-19T02:42:51.119Z,16.80
2022-11-19T02:45:25.725Z,18.47
2022-11-19T02:47:56.321Z,16.33
2022-11-19T02:50:29.262Z,20.33
2022-11-19T02:52:58.669Z,19.07
2022-11-19T02:55:26.913Z,17.07
2022-11-19T02:58:00.787Z,18.47
2022-11-19T03:00:55.965Z,19.87
2022-11-19T03:03:38.502Z,14.93
2022-11-19T03:06:12.783Z,18.40
2022-11-19T03:08:41.030Z,15.63
2022-11-19T03:11:17.092Z,21.03
2022-11-19T03:14:11.424Z,17.13
2022-11-19T03:16:44.891Z,19.87
2022-11-19T03:19:32.492Z,19.20
2022-11-19T03:22:06.210Z,19.03
2022-11-19T03:24:38.611Z,19.83
2022-11-19T03:27:11.629Z,21.40
2022-11-19T03:29:44.850Z,22.70
2022-11-19T03:32:18.650Z,21.03
2022-11-19T03:34:49.518Z,19.20
2022-11-19T03:37:21.837Z,17.67
2022-11-19T03:39:53.582Z,20.53
2022-11-19T03:42:23.181Z,22.40
2022-11-19T03:44:54.398Z,19.03
2022-11-19T03:47:26.898Z,21.30
2022-11-19T03:50:02.383Z,24.47
2022-11-19T03:52:30.774Z,8.87
2022-11-19T03:54:59.115Z,6.17
2022-11-19T03:57:28.526Z,3.67
2022-11-19T03:59:56.718Z,1.60
2022-11-19T04:02:26.285Z,0.93
2022-11-19T04:04:54.498Z,0.90
2022-11-19T04:07:24.598Z,0.80
2022-11-19T04:09:53.001Z,0.67
2022-11-19T04:12:23.556Z,0.60
2022-11-19T04:14:52.823Z,0.90
2022-11-19T04:17:21.617Z,0.40
2022-11-19T04:19:51.171Z,0.30
2022-11-19T04:22:19.609Z,0.40
2022-11-19T04:24:47.732Z,1.03
2022-11-19T04:27:15.923Z,2.23
2022-11-19T04:29:44.058Z,0.50
2022-11-19T04:32:12.218Z,0.93
2022-11-19T04:34:40.358Z,0.70
2022-11-19T04:37:10.270Z,0.60
2022-11-19T04:39:38.429Z,1.13
2022-11-19T04:42:06.680Z,0.60
2022-11-19T04:44:35.173Z,1.07
2022-11-19T04:47:03.338Z,0.57
2022-11-19T04:49:31.548Z,0.53
2022-11-19T04:51:59.883Z,0.60
2022-11-19T04:54:29.365Z,0.53
2022-11-19T04:56:57.548Z,0.50
2022-11-19T04:59:25.718Z,0.60
2022-11-19T05:01:54.552Z,0.70
2022-11-19T05:04:23.321Z,0.53
2022-11-19T05:06:52.878Z,0.63
2022-11-19T05:09:21.664Z,0.87
2022-11-19T05:11:51.487Z,0.40
2022-11-19T05:14:19.929Z,0.60
2022-11-19T05:16:48.043Z,0.40
2022-11-19T05:19:16.182Z,0.50
2022-11-19T05:21:44.649Z,0.50
2022-11-19T05:24:12.868Z,1.43
2022-11-19T05:26:41.023Z,1.23
2022-11-19T05:29:10.916Z,0.50
2022-11-19T05:31:39.037Z,0.53
2022-11-19T05:34:07.314Z,0.47
2022-11-19T05:36:35.471Z,0.30
2022-11-19T05:39:05.004Z,0.20
2022-11-19T05:41:33.333Z,0.30
2022-11-19T05:44:01.595Z,0.40
2022-11-19T05:46:31.161Z,0.40
2022-11-19T05:48:59.992Z,0.30
2022-11-19T05:51:28.165Z,0.40
2022-11-19T05:53:56.323Z,1.07
2022-11-19T05:56:24.546Z,0.47
2022-11-19T05:58:52.686Z,0.70
2022-11-19T06:01:27.059Z,0.40
2022-11-19T06:03:56.886Z,0.40
2022-11-19T06:06:25.921Z,0.67
2022-11-19T06:08:54.105Z,0.37
2022-11-19T06:11:39.993Z,0.50
2022-11-19T06:14:09.455Z,0.47
2022-11-19T06:16:37.584Z,1.00
2022-11-19T06:19:07.388Z,0.47
2022-11-19T06:21:35.512Z,0.50
2022-11-19T06:24:04.705Z,0.40
2022-11-19T06:26:32.865Z,0.50
2022-11-19T06:29:01.343Z,0.40
2022-11-19T06:31:29.915Z,0.50
2022-11-19T06:33:58.246Z,0.67
2022-11-19T06:36:29.161Z,1.67
2022-11-19T06:39:01.518Z,1.00
2022-11-19T06:41:29.739Z,0.97
2022-11-19T06:43:58.249Z,1.20
2022-11-19T06:46:26.341Z,1.27
2022-11-19T06:48:54.551Z,1.60
2022-11-19T06:51:22.719Z,1.97
2022-11-19T06:53:52.945Z,1.60
2022-11-19T06:56:21.120Z,1.30
2022-11-19T06:58:49.254Z,2.13
2022-11-19T07:01:17.409Z,1.70
2022-11-19T07:03:46.293Z,1.63
2022-11-19T07:06:14.359Z,1.60
2022-11-19T07:08:42.558Z,1.87
2022-11-19T07:11:27.559Z,1.77
2022-11-19T07:13:59.747Z,1.87
2022-11-19T07:16:30.749Z,2.43
2022-11-19T07:19:00.096Z,3.40
2022-11-19T07:21:29.334Z,3.70
2022-11-19T07:23:58.124Z,4.80
2022-11-19T07:26:28.435Z,5.27
2022-11-19T07:29:00.515Z,5.83
2022-11-19T07:31:31.655Z,7.27
2022-11-19T07:34:00.136Z,8.47
2022-11-19T07:36:28.466Z,9.87
2022-11-19T07:38:56.617Z,9.57
2022-11-19T07:41:43.094Z,11.20
2022-11-19T07:44:12.625Z,10.13
2022-11-19T07:46:41.526Z,9.27
2022-11-19T07:49:09.657Z,12.73
2022-11-19T07:51:37.865Z,10.80
2022-11-19T07:54:06.366Z,10.00
2022-11-19T07:56:34.827Z,9.27
2022-11-19T07:59:03.089Z,9.43
2022-11-19T08:01:32.863Z,10.03
2022-11-19T08:04:01.127Z,11.57
2022-11-19T08:06:30.019Z,12.63
2022-11-19T08:08:58.729Z,11.37
2022-11-19T08:11:32.706Z,13.53
2022-11-19T08:14:02.299Z,13.73
2022-11-19T08:16:50.951Z,14.13
2022-11-19T08:19:19.675Z,11.87
2022-11-19T08:21:48.987Z,12.97
2022-11-19T08:24:19.795Z,14.10
2022-11-19T08:26:49.271Z,15.37
2022-11-19T08:29:20.061Z,16.57
2022-11-19T08:31:49.903Z,14.30
2022-11-19T08:34:19.416Z,16.80
2022-11-19T08:36:49.299Z,15.80
2022-11-19T08:39:17.605Z,14.80
2022-11-19T08:42:03.331Z,16.30
2022-11-19T08:44:32.135Z,15.77
2022-11-19T08:47:01.643Z,21.40
2022-11-19T08:49:29.935Z,15.83
2022-11-19T08:51:58.701Z,16.13
2022-11-19T08:54:27.135Z,16.80
2022-11-19T08:56:55.495Z,17.37
2022-11-19T08:59:24.595Z,18.37
2022-11-19T09:01:52.865Z,15.43
2022-11-19T09:04:23.803Z,17.57
2022-11-19T09:06:52.311Z,16.50
2022-11-19T09:09:21.145Z,12.73
2022-11-19T09:11:49.435Z,14.07
2022-11-19T09:14:18.206Z,14.60
2022-11-19T09:16:46.748Z,14.87
2022-11-19T09:19:15.159Z,15.40
2022-11-19T09:21:44.876Z,14.47
2022-11-19T09:24:13.406Z,12.27
2022-11-19T09:26:41.785Z,10.57
2022-11-19T09:29:10.417Z,9.90
2022-11-19T09:31:38.801Z,9.17
2022-11-19T09:34:07.033Z,8.50
2022-11-19T09:36:35.168Z,8.00
2022-11-19T09:39:05.315Z,8.17
2022-11-19T09:41:50.251Z,5.50
2022-11-19T09:44:34.432Z,4.53
2022-11-19T09:47:15.194Z,3.80
2022-11-19T09:49:50.510Z,3.77
2022-11-19T09:52:24.393Z,3.63
2022-11-19T09:54:57.094Z,3.70
2022-11-19T09:57:33.534Z,4.13
2022-11-19T10:00:03.118Z,3.23
2022-11-19T10:02:31.456Z,4.27
2022-11-19T10:05:00.781Z,4.63
2022-11-19T10:07:43.286Z,4.20
2022-11-19T10:10:28.966Z,5.27
2022-11-19T10:13:17.798Z,4.67
2022-11-19T10:16:04.498Z,6.43
2022-11-19T10:18:45.593Z,5.67
2022-11-19T10:21:19.665Z,6.30
2022-11-19T10:23:52.925Z,8.50
2022-11-19T10:26:28.401Z,6.83
2022-11-19T10:28:58.381Z,8.13
2022-11-19T10:31:34.038Z,7.13
2022-11-19T10:34:08.496Z,9.07
2022-11-19T10:36:43.516Z,7.63
2022-11-19T10:39:19.641Z,8.47
2022-11-19T10:42:04.615Z,8.17
2022-11-19T10:44:41.471Z,10.20
2022-11-19T10:47:18.184Z,7.73
2022-11-19T10:49:46.466Z,5.57
2022-11-19T10:52:24.627Z,4.57
2022-11-19T10:54:56.462Z,6.30
2022-11-19T10:57:27.060Z,5.13
2022-11-19T10:59:56.074Z,5.43
2022-11-19T11:02:32.303Z,5.63
2022-11-19T11:05:22.433Z,5.07
2022-11-19T11:07:57.930Z,5.07
2022-11-19T11:10:48.157Z,6.30
2022-11-19T11:13:51.424Z,6.67
2022-11-19T11:16:24.017Z,8.60
2022-11-19T11:18:56.086Z,9.80
2022-11-19T11:21:36.317Z,7.53
2022-11-19T11:24:07.875Z,7.97
2022-11-19T11:26:37.969Z,9.10
2022-11-19T11:29:25.417Z,11.90
2022-11-19T11:31:53.896Z,13.07
2022-11-19T11:34:33.629Z,10.50
2022-11-19T11:37:04.470Z,10.60
2022-11-19T11:39:36.011Z,12.73
2022-11-19T11:42:06.722Z,13.27
2022-11-19T11:44:39.655Z,15.10
2022-11-19T11:47:14.643Z,14.53
2022-11-19T11:49:45.919Z,15.60
2022-11-19T11:52:23.146Z,16.00
2022-11-19T11:54:57.927Z,14.20
2022-11-19T11:57:28.171Z,16.00
2022-11-19T11:59:58.577Z,13.20
2022-11-19T12:02:31.111Z,14.13
2022-11-19T12:05:04.217Z,15.60
2022-11-19T12:08:05.136Z,15.30
2022-11-19T12:10:42.807Z,14.53
2022-11-19T12:13:44.248Z,16.70
2022-11-19T12:16:22.916Z,14.00
2022-11-19T12:19:07.098Z,14.93
2022-11-19T12:21:44.010Z,17.87
2022-11-19T12:24:30.579Z,11.87
2022-11-19T12:27:07.707Z,12.17
2022-11-19T12:29:47.838Z,11.63
2022-11-19T12:32:45.072Z,16.47
2022-11-19T12:35:24.866Z,15.17
2022-11-19T12:38:17.897Z,13.00
2022-11-19T12:40:55.623Z,10.03
2022-11-19T12:43:39.001Z,11.20
2022-11-19T12:46:14.285Z,12.00
2022-11-19T12:49:04.803Z,12.10
2022-11-19T12:51:46.687Z,9.37
2022-11-19T12:54:33.364Z,9.00
2022-11-19T12:57:17.956Z,10.50
2022-11-19T13:00:02.809Z,9.77
2022-11-19T13:02:35.754Z,9.27
2022-11-19T13:05:09.724Z,8.40
2022-11-19T13:07:42.663Z,11.17
2022-11-19T13:10:17.375Z,8.00
2022-11-19T13:12:50.262Z,7.73
2022-11-19T13:15:23.427Z,10.90
2022-11-19T13:17:54.713Z,9.30
2022-11-19T13:20:29.824Z,12.80
2022-11-19T13:23:07.894Z,11.27
2022-11-19T13:25:40.221Z,13.80
2022-11-19T13:28:17.070Z,11.20
2022-11-19T13:30:49.585Z,9.40
2022-11-19T13:33:24.290Z,12.33
2022-11-19T13:36:03.602Z,13.30
2022-11-19T13:38:44.669Z,16.40
2022-11-19T13:41:17.019Z,14.40
2022-11-19T13:44:03.601Z,16.47
2022-11-19T13:46:39.295Z,18.53
2022-11-19T13:49:18.317Z,13.73
2022-11-19T13:51:51.116Z,16.40
2022-11-19T13:54:26.953Z,15.83
2022-11-19T13:56:58.663Z,17.77
2022-11-19T13:59:38.768Z,18.23
2022-11-19T14:02:49.284Z,17.70
2022-11-19T14:05:35.412Z,16.87
2022-11-19T14:08:30.434Z,19.17
2022-11-19T14:11:12.986Z,20.03
2022-11-19T14:13:53.753Z,17.93
2022-11-19T14:16:46.504Z,19.17
2022-11-19T14:19:34.430Z,21.33
2022-11-19T14:22:40.407Z,18.07
2022-11-19T14:25:37.256Z,19.60
2022-11-19T14:28:41.392Z,17.83
2022-11-19T14:31:10.076Z,17.77
2022-11-19T14:34:04.128Z,17.87
2022-11-19T14:36:45.051Z,21.03
2022-11-19T14:39:21.080Z,16.17
2022-11-19T14:42:14.834Z,16.83
2022-11-19T14:44:43.714Z,17.63
2022-11-19T14:47:45.131Z,17.87
2022-11-19T14:50:27.732Z,16.90
2022-11-19T14:52:58.365Z,16.07
2022-11-19T14:55:29.523Z,19.33
2022-11-19T14:58:01.878Z,19.03
2022-11-19T15:00:34.454Z,16.57
2022-11-19T15:03:06.642Z,15.10
2022-11-19T15:05:36.751Z,14.40
2022-11-19T15:08:43.163Z,14.70
2022-11-19T15:11:12.676Z,15.37
2022-11-19T15:13:45.498Z,14.63
2022-11-19T15:16:17.048Z,14.83
2022-11-19T15:19:08.343Z,14.33
2022-11-19T15:22:19.250Z,16.43
2022-11-19T15:25:15.053Z,15.27
2022-11-19T15:28:02.653Z,17.40
2022-11-19T15:30:46.253Z,15.20
2022-11-19T15:33:46.438Z,19.20
2022-11-19T15:36:39.818Z,15.60
2022-11-19T15:39:18.234Z,14.57
2022-11-19T15:42:01.403Z,16.03
2022-11-19T15:44:44.468Z,15.67
2022-11-19T15:47:19.340Z,15.53
2022-11-19T15:49:54.114Z,17.27
2022-11-19T15:52:28.951Z,17.07
2022-11-19T15:55:12.094Z,18.47
2022-11-19T15:57:44.631Z,20.83
2022-11-19T16:00:18.902Z,17.90
2022-11-19T16:02:51.147Z,15.30
2022-11-19T16:05:23.455Z,17.27
2022-11-19T16:07:52.305Z,16.10
2022-11-19T16:10:24.985Z,19.13
2022-11-19T16:13:16.954Z,16.73
2022-11-19T16:16:09.791Z,21.00
2022-11-19T16:18:54.614Z,20.57
2022-11-19T16:21:27.539Z,18.73
2022-11-19T16:24:14.067Z,20.40
2022-11-19T16:26:48.802Z,19.07
2022-11-19T16:29:28.657Z,20.33
2022-11-19T16:32:03.163Z,16.20
2022-11-19T16:34:34.909Z,24.00
2022-11-19T16:37:03.758Z,20.87
2022-11-19T16:39:34.856Z,19.87
2022-11-19T16:42:20.016Z,22.33
2022-11-19T16:44:51.421Z,22.27
2022-11-19T16:47:26.375Z,24.10
2022-11-19T16:50:01.409Z,26.00
2022-11-19T16:52:41.152Z,21.60
2022-11-19T16:55:48.436Z,23.70
2022-11-19T16:58:26.866Z,23.87
2022-11-19T17:00:59.793Z,20.37
2022-11-19T17:03:37.477Z,24.20
2022-11-19T17:06:09.911Z,19.87
2022-11-19T17:08:39.665Z,22.60
2022-11-19T17:11:41.191Z,24.47
2022-11-19T17:14:22.026Z,23.00
2022-11-19T17:16:52.690Z,23.77
2022-11-19T17:19:26.517Z,19.57
2022-11-19T17:22:01.230Z,19.60
2022-11-19T17:24:33.191Z,22.47
2022-11-19T17:27:01.900Z,22.50
2022-11-19T17:29:30.200Z,26.47
2022-11-19T17:31:58.717Z,24.20
2022-11-19T17:34:33.403Z,27.40
2022-11-19T17:37:03.307Z,25.40
2022-11-19T17:39:32.010Z,26.17
2022-11-19T17:42:29.849Z,23.13
2022-11-19T17:44:58.833Z,25.57
2022-11-19T17:47:27.072Z,22.83
2022-11-19T17:49:55.509Z,26.37
2022-11-19T17:52:27.359Z,22.00
2022-11-19T17:54:59.066Z,25.20
2022-11-19T17:57:27.281Z,24.80
2022-11-19T17:59:55.643Z,21.93
2022-11-19T18:02:24.242Z,26.77
2022-11-19T18:04:53.099Z,25.20
2022-11-19T18:07:21.521Z,20.60
2022-11-19T18:09:51.524Z,24.23
2022-11-19T18:12:21.762Z,27.37
2022-11-19T18:14:50.039Z,23.10
2022-11-19T18:17:18.295Z,26.13
2022-11-19T18:19:46.426Z,29.03
2022-11-19T18:22:21.729Z,27.27
2022-11-19T18:24:53.494Z,25.23
2022-11-19T18:27:21.792Z,28.23
2022-11-19T18:29:50.050Z,25.80
2022-11-19T18:32:18.265Z,25.27
2022-11-19T18:34:48.093Z,27.80
2022-11-19T18:37:19.620Z,27.20
2022-11-19T18:39:54.350Z,24.27
2022-11-19T18:42:25.870Z,29.33
2022-11-19T18:44:53.849Z,27.27
2022-11-19T18:47:24.578Z,26.73
2022-11-19T18:49:54.529Z,25.43
2022-11-19T18:52:26.225Z,29.17
2022-11-19T18:54:55.845Z,26.77
2022-11-19T18:57:26.144Z,24.87
2022-11-19T18:59:54.563Z,28.33
2022-11-19T19:02:22.768Z,29.00
2022-11-19T19:04:57.271Z,26.10
2022-11-19T19:07:30.027Z,24.87
2022-11-19T19:09:58.734Z,28.33
2022-11-19T19:12:33.381Z,27.13
2022-11-19T19:15:03.332Z,33.17
2022-11-19T19:17:32.114Z,29.97
2022-11-19T19:20:00.221Z,28.10
2022-11-19T19:22:29.649Z,24.77
2022-11-19T19:24:58.439Z,27.33
2022-11-19T19:27:28.580Z,24.47
2022-11-19T19:29:56.751Z,28.20
2022-11-19T19:32:25.352Z,25.47
2022-11-19T19:34:53.575Z,26.30
2022-11-19T19:37:21.790Z,27.23
2022-11-19T19:39:49.953Z,24.37
2022-11-19T19:42:20.540Z,27.67
2022-11-19T19:44:50.176Z,21.57
2022-11-19T19:47:18.746Z,20.97
2022-11-19T19:49:51.179Z,20.97
2022-11-19T19:52:19.312Z,22.27
2022-11-19T19:54:47.496Z,22.67
2022-11-19T19:57:16.344Z,21.43
2022-11-19T19:59:45.173Z,20.37
2022-11-19T20:02:14.715Z,19.20
2022-11-19T20:04:43.172Z,19.33
2022-11-19T20:07:11.321Z,19.53
2022-11-19T20:09:39.822Z,18.87
2022-11-19T20:12:08.338Z,21.17
2022-11-19T20:14:37.104Z,20.87
2022-11-19T20:17:05.505Z,19.17
2022-11-19T20:19:35.285Z,21.43
2022-11-19T20:22:06.351Z,22.23
2022-11-19T20:24:34.547Z,20.70
2022-11-19T20:27:03.298Z,21.53
2022-11-19T20:29:31.518Z,19.83
2022-11-19T20:31:59.892Z,23.00
2022-11-19T20:34:28.290Z,20.53
2022-11-19T20:36:57.996Z,18.63
2022-11-19T20:39:26.268Z,20.77
2022-11-19T20:42:11.950Z,18.20
2022-11-19T20:44:40.174Z,21.30
2022-11-19T20:47:08.345Z,18.67
2022-11-19T20:49:39.715Z,20.07
2022-11-19T20:52:10.844Z,17.03
2022-11-19T20:54:39.298Z,17.53
2022-11-19T20:57:07.619Z,16.17
2022-11-19T20:59:35.807Z,19.73
2022-11-19T21:02:04.430Z,17.00
2022-11-19T21:04:36.532Z,18.37
2022-11-19T21:07:05.447Z,20.47
2022-11-19T21:09:35.617Z,17.40
2022-11-19T21:12:04.044Z,16.73
2022-11-19T21:14:35.079Z,21.30
2022-11-19T21:17:03.199Z,20.33
2022-11-19T21:19:31.347Z,24.33
2022-11-19T21:21:59.461Z,22.67
2022-11-19T21:24:27.636Z,21.63
2022-11-19T21:26:57.519Z,21.13
2022-11-19T21:29:25.683Z,21.60
2022-11-19T21:31:53.959Z,20.03
2022-11-19T21:34:23.456Z,20.37
2022-11-19T21:36:51.815Z,21.57
2022-11-19T21:39:21.033Z,21.83
2022-11-19T21:41:49.716Z,21.27
2022-11-19T21:44:21.882Z,21.57
2022-11-19T21:46:50.461Z,22.30
2022-11-19T21:49:19.417Z,19.40
2022-11-19T21:51:47.952Z,21.43
2022-11-19T21:54:17.430Z,22.58
2022-11-19T21:56:46.055Z,20.33
2022-11-19T21:59:14.580Z,22.73
2022-11-19T22:01:44.145Z,22.07
2022-11-19T22:04:13.731Z,22.00
2022-11-19T22:06:42.168Z,22.50
2022-11-19T22:09:10.279Z,23.07
2022-11-19T22:11:38.475Z,22.97
2022-11-19T22:14:08.474Z,21.67
2022-11-19T22:16:39.315Z,20.93
2022-11-19T22:19:09.427Z,24.00
2022-11-19T22:21:39.967Z,20.80
2022-11-19T22:24:08.503Z,21.23
2022-11-19T22:26:37.016Z,21.97
2022-11-19T22:29:07.969Z,20.50
2022-11-19T22:31:36.230Z,25.27
2022-11-19T22:34:04.471Z,20.80
2022-11-19T22:36:34.353Z,21.17
2022-11-19T22:39:02.930Z,21.23
2022-11-19T22:41:31.273Z,22.47
2022-11-19T22:43:59.942Z,21.93
2022-11-19T22:46:28.186Z,22.83
2022-11-19T22:48:56.616Z,18.63
2022-11-19T22:51:26.854Z,20.67
2022-11-19T22:53:57.326Z,17.60
2022-11-19T22:56:27.488Z,19.87
2022-11-19T22:58:57.715Z,16.40
2022-11-19T23:01:28.970Z,16.53
2022-11-19T23:03:59.501Z,17.60
2022-11-19T23:06:28.846Z,18.07
2022-11-19T23:08:58.826Z,19.40
2022-11-19T23:11:44.496Z,18.70
2022-11-19T23:14:14.785Z,19.40
2022-11-19T23:16:44.504Z,22.30
2022-11-19T23:19:13.551Z,21.73
2022-11-19T23:21:43.013Z,21.00
2022-11-19T23:24:13.105Z,20.87
2022-11-19T23:26:41.988Z,21.00
2022-11-19T23:29:10.824Z,20.83
2022-11-19T23:31:40.623Z,23.60
2022-11-19T23:34:09.636Z,24.03
2022-11-19T23:36:40.052Z,22.07
2022-11-19T23:39:13.903Z,20.63
2022-11-19T23:41:43.768Z,23.00
2022-11-19T23:44:12.352Z,20.10
2022-11-19T23:46:47.535Z,23.00
2022-11-19T23:49:16.213Z,19.97
2022-11-19T23:51:44.722Z,22.17
2022-11-19T23:54:14.601Z,19.87
2022-11-19T23:56:45.705Z,21.77
2022-11-19T23:59:13.842Z,21.47
